createdAt,value
2018-12-08T00:00:51.012Z,1.82
2018-12-08T00:03:19.248Z,1.45
2018-12-08T00:05:47.439Z,1.45
2018-12-08T00:08:15.632Z,1.15
2018-12-08T00:10:43.811Z,1.62
2018-12-08T00:13:12.008Z,1.77
2018-12-08T00:15:40.197Z,1.30
2018-12-08T00:18:08.372Z,1.07
2018-12-08T00:20:36.594Z,1.20
2018-12-08T00:23:04.748Z,1.30
2018-12-08T00:25:32.936Z,1.42
2018-12-08T00:28:01.128Z,1.47
2018-12-08T00:30:40.792Z,0.82
2018-12-08T00:33:08.969Z,1.35
2018-12-08T00:35:37.153Z,1.20
2018-12-08T00:38:05.340Z,1.32
2018-12-08T00:40:33.557Z,0.90
2018-12-08T00:43:01.716Z,0.62
2018-12-08T00:45:29.900Z,1.52
2018-12-08T00:47:58.084Z,1.00
2018-12-08T00:50:26.276Z,0.93
2018-12-08T00:52:54.560Z,1.30
2018-12-08T00:55:22.756Z,0.98
2018-12-08T00:57:50.948Z,0.93
2018-12-08T01:00:19.157Z,1.20
2018-12-08T01:02:47.426Z,0.98
2018-12-08T01:05:15.705Z,0.68
2018-12-08T01:07:43.891Z,0.90
2018-12-08T01:10:12.089Z,1.00
2018-12-08T01:12:40.271Z,1.12
2018-12-08T01:15:08.652Z,1.20
2018-12-08T01:17:36.847Z,1.15
2018-12-08T01:20:05.031Z,1.07
2018-12-08T01:22:33.230Z,1.17
2018-12-08T01:25:01.497Z,1.22
2018-12-08T01:27:29.701Z,0.98
2018-12-08T01:29:57.880Z,1.02
2018-12-08T01:32:26.068Z,1.17
2018-12-08T01:34:54.243Z,1.00
2018-12-08T01:37:22.456Z,1.10
2018-12-08T01:39:50.627Z,0.90
2018-12-08T01:42:19.750Z,1.17
2018-12-08T01:44:48.021Z,1.25
2018-12-08T01:47:16.129Z,1.35
2018-12-08T01:49:44.308Z,1.65
2018-12-08T01:52:12.512Z,1.30
2018-12-08T01:54:40.684Z,1.75
2018-12-08T01:57:08.873Z,1.30
2018-12-08T01:59:37.056Z,1.40
2018-12-08T02:02:05.152Z,0.80
2018-12-08T02:04:33.324Z,0.80
2018-12-08T02:07:01.521Z,0.70
2018-12-08T02:09:29.696Z,0.60
2018-12-08T02:11:57.881Z,0.93
2018-12-08T02:14:26.056Z,1.02
2018-12-08T02:16:54.260Z,0.90
2018-12-08T02:19:22.436Z,0.70
2018-12-08T02:21:50.616Z,1.07
2018-12-08T02:24:18.811Z,0.80
2018-12-08T02:26:47.052Z,1.02
2018-12-08T02:29:15.184Z,1.17
2018-12-08T02:31:53.012Z,1.00
2018-12-08T02:34:21.182Z,0.80
2018-12-08T02:36:49.372Z,1.22
2018-12-08T02:39:17.565Z,1.10
2018-12-08T02:41:45.737Z,1.20
2018-12-08T02:44:13.927Z,1.32
2018-12-08T02:46:42.112Z,1.75
2018-12-08T02:49:10.307Z,1.62
2018-12-08T02:51:38.699Z,1.27
2018-12-08T02:54:06.893Z,1.05
2018-12-08T02:56:35.097Z,1.20
2018-12-08T02:59:03.354Z,1.42
2018-12-08T03:01:31.541Z,1.12
2018-12-08T03:03:59.730Z,0.93
2018-12-08T03:06:27.899Z,1.10
2018-12-08T03:08:56.009Z,2.20
2018-12-08T03:11:24.181Z,0.90
2018-12-08T03:13:52.372Z,1.05
2018-12-08T03:16:20.562Z,1.12
2018-12-08T03:18:48.757Z,1.10
2018-12-08T03:21:16.923Z,1.17
2018-12-08T03:23:45.087Z,1.20
2018-12-08T03:26:13.300Z,0.80
2018-12-08T03:28:41.401Z,1.17
2018-12-08T03:31:09.581Z,1.17
2018-12-08T03:33:37.768Z,0.95
2018-12-08T03:36:05.948Z,1.50
2018-12-08T03:38:34.131Z,0.75
2018-12-08T03:41:02.331Z,1.00
2018-12-08T03:43:30.509Z,1.10
2018-12-08T03:45:58.708Z,1.15
2018-12-08T03:48:26.887Z,1.07
2018-12-08T03:50:55.097Z,0.72
2018-12-08T03:53:23.256Z,0.93
2018-12-08T03:55:51.452Z,0.70
2018-12-08T03:58:19.628Z,0.82
2018-12-08T04:00:47.734Z,0.70
2018-12-08T04:03:15.955Z,0.60
2018-12-08T04:05:44.096Z,0.62
2018-12-08T04:08:12.284Z,0.75
2018-12-08T04:10:40.485Z,0.70
2018-12-08T04:13:08.748Z,0.70
2018-12-08T04:15:36.829Z,0.90
2018-12-08T04:18:04.952Z,0.82
2018-12-08T04:20:33.109Z,0.62
2018-12-08T04:23:01.200Z,0.85
2018-12-08T04:25:29.368Z,0.72
2018-12-08T04:27:57.450Z,0.60
2018-12-08T04:30:25.550Z,0.72
2018-12-08T04:32:53.719Z,1.10
2018-12-08T04:35:21.921Z,0.70
2018-12-08T04:37:50.128Z,0.60
2018-12-08T04:40:18.303Z,0.75
2018-12-08T04:42:46.471Z,0.68
2018-12-08T04:45:14.552Z,0.55
2018-12-08T04:47:42.653Z,0.50
2018-12-08T04:50:10.828Z,0.60
2018-12-08T04:52:38.924Z,0.60
2018-12-08T04:55:07.103Z,0.70
2018-12-08T04:57:35.184Z,0.62
2018-12-08T05:00:03.310Z,0.80
2018-12-08T05:02:31.461Z,0.80
2018-12-08T05:04:59.544Z,0.60
2018-12-08T05:07:27.633Z,0.93
2018-12-08T05:09:55.807Z,0.80
2018-12-08T05:12:24.928Z,0.78
2018-12-08T05:14:53.108Z,0.82
2018-12-08T05:17:21.305Z,0.80
2018-12-08T05:19:49.487Z,1.47
2018-12-08T05:22:17.600Z,1.00
2018-12-08T05:24:45.756Z,0.90
2018-12-08T05:27:13.891Z,0.78
2018-12-08T05:29:42.132Z,1.02
2018-12-08T05:32:10.215Z,0.85
2018-12-08T05:34:38.296Z,1.00
2018-12-08T05:37:06.385Z,0.80
2018-12-08T05:39:34.459Z,1.00
2018-12-08T05:42:02.553Z,0.80
2018-12-08T05:44:30.735Z,0.90
2018-12-08T05:46:58.928Z,1.20
2018-12-08T05:49:27.048Z,0.95
2018-12-08T05:51:55.213Z,0.90
2018-12-08T05:54:23.383Z,1.10
2018-12-08T05:56:51.488Z,1.80
2018-12-08T05:59:19.651Z,1.37
2018-12-08T06:01:47.748Z,1.32
2018-12-08T06:04:16.021Z,1.17
2018-12-08T06:06:44.226Z,0.98
2018-12-08T06:09:12.320Z,1.55
2018-12-08T06:11:40.492Z,0.95
2018-12-08T06:14:08.576Z,1.32
2018-12-08T06:16:36.776Z,1.27
2018-12-08T06:19:04.953Z,0.80
2018-12-08T06:21:36.383Z,1.02
2018-12-08T06:24:04.684Z,1.77
2018-12-08T06:26:37.729Z,1.57
2018-12-08T06:29:05.893Z,1.37
2018-12-08T06:31:34.068Z,1.10
2018-12-08T06:34:02.165Z,1.30
2018-12-08T06:36:30.345Z,1.10
2018-12-08T06:38:58.440Z,1.10
2018-12-08T06:41:26.510Z,1.32
2018-12-08T06:43:54.597Z,1.32
2018-12-08T06:46:22.780Z,1.27
2018-12-08T06:48:50.879Z,1.72
2018-12-08T06:51:19.055Z,1.80
2018-12-08T06:53:47.150Z,1.00
2018-12-08T06:56:15.330Z,1.32
2018-12-08T06:58:43.416Z,1.62
2018-12-08T07:01:11.495Z,1.90
2018-12-08T07:03:39.607Z,1.47
2018-12-08T07:06:07.764Z,1.50
2018-12-08T07:08:35.856Z,1.55
2018-12-08T07:11:03.942Z,1.47
2018-12-08T07:13:32.138Z,1.75
2018-12-08T07:16:00.308Z,2.10
2018-12-08T07:18:28.405Z,1.50
2018-12-08T07:20:56.596Z,1.57
2018-12-08T07:23:25.128Z,1.65
2018-12-08T07:25:53.272Z,1.52
2018-12-08T07:28:21.464Z,1.70
2018-12-08T07:30:49.671Z,1.27
2018-12-08T07:33:17.860Z,2.08
2018-12-08T07:35:47.357Z,1.07
2018-12-08T07:38:15.485Z,1.55
2018-12-08T07:40:45.207Z,1.57
2018-12-08T07:43:13.454Z,1.65
2018-12-08T07:45:41.656Z,1.92
2018-12-08T07:48:11.179Z,1.57
2018-12-08T07:50:39.260Z,1.60
2018-12-08T07:53:11.597Z,1.15
2018-12-08T07:55:39.724Z,1.32
2018-12-08T07:58:07.904Z,1.45
2018-12-08T08:00:36.100Z,1.35
2018-12-08T08:03:04.179Z,1.40
2018-12-08T08:05:32.363Z,1.30
2018-12-08T08:08:00.557Z,0.88
2018-12-08T08:10:28.731Z,0.90
2018-12-08T08:12:56.913Z,1.12
2018-12-08T08:15:25.097Z,1.40
2018-12-08T08:17:53.181Z,0.98
2018-12-08T08:20:21.364Z,0.88
2018-12-08T08:22:49.427Z,1.07
2018-12-08T08:25:17.553Z,0.93
2018-12-08T08:27:45.716Z,1.05
2018-12-08T08:30:13.808Z,0.55
2018-12-08T08:32:41.955Z,0.95
2018-12-08T08:35:10.136Z,1.02
2018-12-08T08:37:38.278Z,0.90
2018-12-08T08:40:08.892Z,0.93
2018-12-08T08:42:37.009Z,0.75
2018-12-08T08:45:05.463Z,1.10
2018-12-08T08:47:33.536Z,0.80
2018-12-08T08:50:01.672Z,0.80
2018-12-08T08:52:29.876Z,0.72
2018-12-08T08:54:58.128Z,1.05
2018-12-08T08:57:26.219Z,0.70
2018-12-08T08:59:54.299Z,0.70
2018-12-08T09:02:22.426Z,0.85
2018-12-08T09:04:50.667Z,0.60
2018-12-08T09:07:18.763Z,0.60
2018-12-08T09:09:47.060Z,0.72
2018-12-08T09:12:15.115Z,0.70
2018-12-08T09:14:43.227Z,0.40
2018-12-08T09:17:11.423Z,0.57
2018-12-08T09:19:39.596Z,0.50
2018-12-08T09:22:07.688Z,0.40
2018-12-08T09:24:35.872Z,0.50
2018-12-08T09:27:04.048Z,0.40
2018-12-08T09:29:32.177Z,0.33
2018-12-08T09:32:00.324Z,0.50
2018-12-08T09:34:28.524Z,0.53
2018-12-08T09:36:56.647Z,0.50
2018-12-08T09:39:24.796Z,0.42
2018-12-08T09:41:52.976Z,0.80
2018-12-08T09:44:21.168Z,0.60
2018-12-08T09:46:49.351Z,0.70
2018-12-08T09:49:17.548Z,0.40
2018-12-08T09:51:45.663Z,0.70
2018-12-08T09:54:13.816Z,0.90
2018-12-08T09:56:42.000Z,0.90
2018-12-08T09:59:10.201Z,0.78
2018-12-08T10:01:38.372Z,0.90
2018-12-08T10:04:06.457Z,0.53
2018-12-08T10:06:34.636Z,0.80
2018-12-08T10:09:02.915Z,0.85
2018-12-08T10:11:31.012Z,1.25
2018-12-08T10:13:59.116Z,0.80
2018-12-08T10:16:27.289Z,0.70
2018-12-08T10:18:55.800Z,0.70
2018-12-08T10:21:23.968Z,0.80
2018-12-08T10:23:52.158Z,0.88
2018-12-08T10:26:20.234Z,0.88
2018-12-08T10:28:48.324Z,1.12
2018-12-08T10:31:16.556Z,1.15
2018-12-08T10:33:44.696Z,0.70
2018-12-08T10:36:12.888Z,0.93
2018-12-08T10:38:41.075Z,1.62
2018-12-08T10:41:09.270Z,0.78
2018-12-08T10:43:37.463Z,1.45
2018-12-08T10:46:05.623Z,1.07
2018-12-08T10:48:33.725Z,1.35
2018-12-08T10:51:01.901Z,1.07
2018-12-08T10:53:29.972Z,1.15
2018-12-08T10:55:58.095Z,0.80
2018-12-08T10:58:26.260Z,0.88
2018-12-08T11:00:59.938Z,1.30
2018-12-08T11:03:29.214Z,0.80
2018-12-08T11:05:57.488Z,1.10
2018-12-08T11:08:26.993Z,1.07
2018-12-08T11:10:55.180Z,0.60
2018-12-08T11:13:23.372Z,0.93
2018-12-08T11:15:51.560Z,0.78
2018-12-08T11:18:19.745Z,0.60
2018-12-08T11:20:47.907Z,0.80
2018-12-08T11:23:16.016Z,0.68
2018-12-08T11:25:44.210Z,0.60
2018-12-08T11:28:12.385Z,0.70
2018-12-08T11:30:40.489Z,0.50
2018-12-08T11:33:08.671Z,0.42
2018-12-08T11:35:36.859Z,0.85
2018-12-08T11:38:05.062Z,0.60
2018-12-08T11:40:33.332Z,0.47
2018-12-08T11:43:01.420Z,0.47
2018-12-08T11:45:29.591Z,0.30
2018-12-08T11:47:57.780Z,0.60
2018-12-08T11:50:25.984Z,0.42
2018-12-08T11:52:54.067Z,0.37
2018-12-08T11:55:29.909Z,0.40
2018-12-08T11:57:52.475Z,0.50
2018-12-08T12:00:20.558Z,0.30
2018-12-08T12:02:48.745Z,0.35
2018-12-08T12:05:16.908Z,0.40
2018-12-08T12:07:45.013Z,0.53
2018-12-08T12:10:13.119Z,0.50
2018-12-08T12:12:41.296Z,0.60
2018-12-08T12:15:09.580Z,0.30
2018-12-08T12:17:37.666Z,0.50
2018-12-08T12:20:06.245Z,0.50
2018-12-08T12:22:34.548Z,0.70
2018-12-08T12:25:02.864Z,0.50
2018-12-08T12:27:30.962Z,0.60
2018-12-08T12:29:59.105Z,0.70
2018-12-08T12:32:28.208Z,1.00
2018-12-08T12:34:56.295Z,0.60
2018-12-08T12:37:24.371Z,0.80
2018-12-08T12:39:52.455Z,0.60
2018-12-08T12:42:20.554Z,0.80
2018-12-08T12:44:48.724Z,0.65
2018-12-08T12:47:16.811Z,0.90
2018-12-08T12:49:44.899Z,0.70
2018-12-08T12:52:13.003Z,0.62
2018-12-08T12:54:41.163Z,0.70
2018-12-08T12:57:09.265Z,0.70
2018-12-08T12:59:37.440Z,0.68
2018-12-08T13:02:05.536Z,0.75
2018-12-08T13:04:33.595Z,0.80
2018-12-08T13:07:01.700Z,0.53
2018-12-08T13:09:29.885Z,0.60
2018-12-08T13:11:58.356Z,0.53
2018-12-08T13:14:26.492Z,0.50
2018-12-08T13:16:54.669Z,0.40
2018-12-08T13:19:22.839Z,0.50
2018-12-08T13:21:50.937Z,0.50
2018-12-08T13:24:19.112Z,0.35
2018-12-08T13:26:47.345Z,0.78
2018-12-08T13:29:15.501Z,0.25
2018-12-08T13:31:43.683Z,0.60
2018-12-08T13:34:28.479Z,0.42
2018-12-08T13:36:56.652Z,0.50
2018-12-08T13:39:24.833Z,0.60
2018-12-08T13:41:53.085Z,0.40
2018-12-08T13:44:34.745Z,0.50
2018-12-08T13:47:03.259Z,0.70
2018-12-08T13:49:31.681Z,0.55
2018-12-08T13:51:59.792Z,0.40
2018-12-08T13:54:39.372Z,0.65
2018-12-08T13:57:07.540Z,0.40
2018-12-08T13:59:35.724Z,0.42
2018-12-08T14:02:03.913Z,0.53
2018-12-08T14:04:32.099Z,0.60
2018-12-08T14:07:00.300Z,0.68
2018-12-08T14:09:28.942Z,0.42
2018-12-08T14:11:57.271Z,0.50
2018-12-08T14:14:25.456Z,0.70
2018-12-08T14:16:53.656Z,0.35
2018-12-08T14:19:21.854Z,0.50
2018-12-08T14:21:50.025Z,0.62
2018-12-08T14:24:18.215Z,0.50
2018-12-08T14:26:46.432Z,0.62
2018-12-08T14:29:14.685Z,0.60
2018-12-08T14:31:43.195Z,0.50
2018-12-08T14:34:11.636Z,0.60
2018-12-08T14:36:42.885Z,0.40
2018-12-08T14:39:11.437Z,0.30
2018-12-08T14:41:39.625Z,0.40
2018-12-08T14:44:07.796Z,0.53
2018-12-08T14:46:35.996Z,0.55
2018-12-08T14:49:04.160Z,0.40
2018-12-08T14:51:32.310Z,0.57
2018-12-08T14:54:01.231Z,0.50
2018-12-08T14:56:29.443Z,0.42
2018-12-08T14:58:57.568Z,0.60
2018-12-08T15:01:25.736Z,0.50
2018-12-08T15:03:53.943Z,0.47
2018-12-08T15:06:22.025Z,0.53
2018-12-08T15:08:50.176Z,0.53
2018-12-08T15:11:18.380Z,0.40
2018-12-08T15:13:46.549Z,0.40
2018-12-08T15:16:14.752Z,0.65
2018-12-08T15:18:42.933Z,0.40
2018-12-08T15:21:11.226Z,0.55
2018-12-08T15:23:39.423Z,0.57
2018-12-08T15:26:07.588Z,0.78
2018-12-08T15:28:35.783Z,0.65
2018-12-08T15:31:03.955Z,0.70
2018-12-08T15:33:32.055Z,0.75
2018-12-08T15:36:00.228Z,0.93
2018-12-08T15:38:28.320Z,0.88
2018-12-08T15:40:56.403Z,1.45
2018-12-08T15:43:24.603Z,1.20
2018-12-08T15:45:52.768Z,1.20
2018-12-08T15:48:20.859Z,1.30
2018-12-08T15:50:48.943Z,1.32
2018-12-08T15:53:17.033Z,1.47
2018-12-08T15:55:46.031Z,1.10
2018-12-08T15:58:14.132Z,1.20
2018-12-08T16:00:42.304Z,1.52
2018-12-08T16:03:10.396Z,1.20
2018-12-08T16:05:38.470Z,1.00
2018-12-08T16:08:06.792Z,1.17
2018-12-08T16:10:35.184Z,1.35
2018-12-08T16:13:03.348Z,1.37
2018-12-08T16:15:31.536Z,1.87
2018-12-08T16:17:59.736Z,0.95
2018-12-08T16:20:27.898Z,1.10
2018-12-08T16:22:56.004Z,1.15
2018-12-08T16:25:24.177Z,1.27
2018-12-08T16:27:52.288Z,1.05
2018-12-08T16:30:20.468Z,0.90
2018-12-08T16:32:48.631Z,1.35
2018-12-08T16:35:16.812Z,1.37
2018-12-08T16:37:44.893Z,1.17
2018-12-08T16:40:13.008Z,1.50
2018-12-08T16:42:41.187Z,0.80
2018-12-08T16:45:09.500Z,1.82
2018-12-08T16:47:37.756Z,1.55
2018-12-08T16:50:07.862Z,1.25
2018-12-08T16:52:35.976Z,1.50
2018-12-08T16:55:04.858Z,1.52
2018-12-08T16:57:32.977Z,1.50
2018-12-08T17:00:01.172Z,1.80
2018-12-08T17:02:30.365Z,1.47
2018-12-08T17:04:58.459Z,1.80
2018-12-08T17:07:26.630Z,1.87
2018-12-08T17:09:54.723Z,2.17
2018-12-08T17:12:23.828Z,1.32
2018-12-08T17:14:52.031Z,1.60
2018-12-08T17:17:20.215Z,1.30
2018-12-08T17:19:48.609Z,1.30
2018-12-08T17:22:16.777Z,1.22
2018-12-08T17:24:44.880Z,1.52
2018-12-08T17:27:13.066Z,1.25
2018-12-08T17:29:41.261Z,1.30
2018-12-08T17:32:09.436Z,1.22
2018-12-08T17:34:37.604Z,1.55
2018-12-08T17:37:05.712Z,1.20
2018-12-08T17:39:33.892Z,0.98
2018-12-08T17:42:02.073Z,1.47
2018-12-08T17:44:30.257Z,1.10
2018-12-08T17:46:58.456Z,1.22
2018-12-08T17:49:26.631Z,1.62
2018-12-08T17:51:54.824Z,1.55
2018-12-08T17:54:23.000Z,1.20
2018-12-08T17:56:51.096Z,1.67
2018-12-08T17:59:19.273Z,1.60
2018-12-08T18:01:47.432Z,1.70
2018-12-08T18:04:15.564Z,2.12
2018-12-08T18:06:43.728Z,1.72
2018-12-08T18:09:11.827Z,2.20
2018-12-08T18:11:40.418Z,1.92
2018-12-08T18:14:08.607Z,1.67
2018-12-08T18:16:36.800Z,1.70
2018-12-08T18:19:04.972Z,1.55
2018-12-08T18:21:33.112Z,1.57
2018-12-08T18:24:01.248Z,1.55
2018-12-08T18:26:29.449Z,1.72
2018-12-08T18:28:57.628Z,2.12
2018-12-08T18:31:25.807Z,1.70
2018-12-08T18:33:54.009Z,2.67
2018-12-08T18:36:22.177Z,2.15
2018-12-08T18:38:50.267Z,1.98
2018-12-08T18:41:18.460Z,1.72
2018-12-08T18:43:46.644Z,1.42
2018-12-08T18:46:14.845Z,1.92
2018-12-08T18:48:43.027Z,2.15
2018-12-08T18:51:11.217Z,1.62
2018-12-08T18:53:39.404Z,1.52
2018-12-08T18:56:07.580Z,1.52
2018-12-08T18:58:35.769Z,1.72
2018-12-08T19:01:04.023Z,2.02
2018-12-08T19:03:32.244Z,1.67
2018-12-08T19:06:00.431Z,1.50
2018-12-08T19:08:28.511Z,1.50
2018-12-08T19:10:56.711Z,1.35
2018-12-08T19:13:24.996Z,1.22
2018-12-08T19:15:53.155Z,1.20
2018-12-08T19:18:21.267Z,1.02
2018-12-08T19:20:49.344Z,0.90
2018-12-08T19:23:17.536Z,0.95
2018-12-08T19:25:45.713Z,1.20
2018-12-08T19:28:13.797Z,0.98
2018-12-08T19:30:41.880Z,1.10
2018-12-08T19:33:14.462Z,0.70
2018-12-08T19:35:40.096Z,0.68
2018-12-08T19:38:08.204Z,1.00
2018-12-08T19:40:36.369Z,0.78
2018-12-08T19:43:04.450Z,0.82
2018-12-08T19:45:32.640Z,0.90
2018-12-08T19:48:00.720Z,0.90
2018-12-08T19:50:28.820Z,1.10
2018-12-08T19:52:56.995Z,0.93
2018-12-08T19:55:25.084Z,0.98
2018-12-08T19:57:53.256Z,1.00
2018-12-08T20:00:21.365Z,1.10
2018-12-08T20:02:49.532Z,0.90
2018-12-08T20:05:17.724Z,0.50
2018-12-08T20:07:45.800Z,0.70
2018-12-08T20:10:13.900Z,0.62
2018-12-08T20:12:42.072Z,0.57
2018-12-08T20:15:11.683Z,0.70
2018-12-08T20:17:39.779Z,0.72
2018-12-08T20:20:07.984Z,0.60
2018-12-08T20:22:36.148Z,0.70
2018-12-08T20:25:04.252Z,0.50
2018-12-08T20:27:32.428Z,0.90
2018-12-08T20:30:00.620Z,0.70
2018-12-08T20:32:28.795Z,0.60
2018-12-08T20:34:56.897Z,0.90
2018-12-08T20:37:25.077Z,0.50
2018-12-08T20:39:53.165Z,0.90
2018-12-08T20:42:21.343Z,0.53
2018-12-08T20:44:49.465Z,0.57
2018-12-08T20:47:17.619Z,0.75
2018-12-08T20:49:45.696Z,0.90
2018-12-08T20:52:13.988Z,1.00
2018-12-08T20:54:42.175Z,1.30
2018-12-08T20:57:10.272Z,1.17
2018-12-08T20:59:38.444Z,0.90
2018-12-08T21:02:06.529Z,1.00
2018-12-08T21:04:34.607Z,0.85
2018-12-08T21:07:02.684Z,1.17
2018-12-08T21:09:30.788Z,0.70
2018-12-08T21:11:58.990Z,0.93
2018-12-08T21:14:27.169Z,0.80
2018-12-08T21:16:55.527Z,0.60
2018-12-08T21:19:23.643Z,0.45
2018-12-08T21:21:51.836Z,0.50
2018-12-08T21:24:20.068Z,0.40
2018-12-08T21:26:48.376Z,0.40
2018-12-08T21:29:16.497Z,0.60
2018-12-08T21:31:44.688Z,0.68
2018-12-08T21:34:12.866Z,0.50
2018-12-08T21:36:41.073Z,0.40
2018-12-08T21:39:09.336Z,0.40
2018-12-08T21:41:37.472Z,0.50
2018-12-08T21:44:05.613Z,0.60
2018-12-08T21:46:33.804Z,0.40
2018-12-08T21:49:01.999Z,0.30
2018-12-08T21:51:30.184Z,0.30
2018-12-08T21:53:58.376Z,0.30
2018-12-08T21:56:26.557Z,0.72
2018-12-08T21:58:54.743Z,0.80
2018-12-08T22:01:22.925Z,0.70
2018-12-08T22:03:51.124Z,0.70
2018-12-08T22:06:19.316Z,0.60
2018-12-08T22:08:47.403Z,0.90
2018-12-08T22:11:15.563Z,1.00
2018-12-08T22:13:43.758Z,0.57
2018-12-08T22:16:11.936Z,0.65
2018-12-08T22:18:40.020Z,0.75
2018-12-08T22:21:08.101Z,0.60
2018-12-08T22:23:36.188Z,0.90
2018-12-08T22:26:04.279Z,0.60
2018-12-08T22:28:32.476Z,0.60
2018-12-08T22:31:00.655Z,0.60
2018-12-08T22:33:28.864Z,0.55
2018-12-08T22:35:57.017Z,0.50
2018-12-08T22:38:25.113Z,0.47
2018-12-08T22:40:53.187Z,0.78
2018-12-08T22:43:21.277Z,0.62
2018-12-08T22:45:49.369Z,0.60
2018-12-08T22:48:17.560Z,0.30
2018-12-08T22:50:45.728Z,0.30
2018-12-08T22:53:13.815Z,0.50
2018-12-08T22:55:42.016Z,0.45
2018-12-08T22:58:10.191Z,0.60
2018-12-08T23:00:45.688Z,0.80
2018-12-08T23:03:14.879Z,0.90
2018-12-08T23:05:43.362Z,0.80
2018-12-08T23:08:11.533Z,0.80
2018-12-08T23:10:39.641Z,0.85
2018-12-08T23:13:07.816Z,0.50
2018-12-08T23:15:35.900Z,0.30
2018-12-08T23:18:04.075Z,0.57
2018-12-08T23:20:32.173Z,0.55
2018-12-08T23:23:00.248Z,0.47
2018-12-08T23:25:28.339Z,0.65
2018-12-08T23:27:56.520Z,0.25
2018-12-08T23:30:24.612Z,0.23
2018-12-08T23:32:52.799Z,0.10
2018-12-08T23:35:21.006Z,0.20
2018-12-08T23:37:49.164Z,0.20
2018-12-08T23:40:17.264Z,0.20
2018-12-08T23:42:45.436Z,0.20
2018-12-08T23:45:13.527Z,0.20
2018-12-08T23:47:41.620Z,0.45
2018-12-08T23:50:09.924Z,0.30
2018-12-08T23:52:38.080Z,0.30
2018-12-08T23:55:06.678Z,0.30
2018-12-08T23:57:34.884Z,0.30
